sensor_id;sensor_type;location;lat;lon;timestamp;P1;durP1;ratioP1;P2;durP2;ratioP2
17844;SDS011;9047;53.486;10.218;2023-05-07T00:00:25;15.15;;;10.85;;
17844;SDS011;9047;53.486;10.218;2023-05-07T00:02:52;14.57;;;11.32;;
17844;SDS011;9047;53.486;10.218;2023-05-07T00:05:21;13.85;;;10.15;;
17844;SDS011;9047;53.486;10.218;2023-05-07T00:07:48;14.38;;;10.73;;
17844;SDS011;9047;53.486;10.218;2023-05-07T00:10:17;14.85;;;10.77;;
17844;SDS011;9047;53.486;10.218;2023-05-07T00:12:45;16.17;;;11.18;;
17844;SDS011;9047;53.486;10.218;2023-05-07T00:15:13;17.27;;;11.23;;
17844;SDS011;9047;53.486;10.218;2023-05-07T00:17:41;15.50;;;10.50;;
17844;SDS011;9047;53.486;10.218;2023-05-07T00:20:09;15.63;;;10.68;;
17844;SDS011;9047;53.486;10.218;2023-05-07T00:22:37;13.88;;;10.18;;
17844;SDS011;9047;53.486;10.218;2023-05-07T00:25:04;14.63;;;10.32;;
17844;SDS011;9047;53.486;10.218;2023-05-07T00:27:32;14.57;;;10.75;;
17844;SDS011;9047;53.486;10.218;2023-05-07T00:30:00;16.27;;;10.85;;
17844;SDS011;9047;53.486;10.218;2023-05-07T00:32:28;16.17;;;10.80;;
17844;SDS011;9047;53.486;10.218;2023-05-07T00:34:56;15.60;;;10.70;;
17844;SDS011;9047;53.486;10.218;2023-05-07T00:37:25;15.57;;;10.55;;
17844;SDS011;9047;53.486;10.218;2023-05-07T00:40:02;15.30;;;11.20;;
17844;SDS011;9047;53.486;10.218;2023-05-07T00:42:33;14.55;;;11.13;;
17844;SDS011;9047;53.486;10.218;2023-05-07T00:45:05;13.80;;;10.40;;
17844;SDS011;9047;53.486;10.218;2023-05-07T00:47:35;14.57;;;10.30;;
17844;SDS011;9047;53.486;10.218;2023-05-07T00:50:06;14.40;;;10.45;;
17844;SDS011;9047;53.486;10.218;2023-05-07T00:52:34;13.68;;;9.23;;
17844;SDS011;9047;53.486;10.218;2023-05-07T00:55:06;11.73;;;8.60;;
17844;SDS011;9047;53.486;10.218;2023-05-07T00:57:39;10.98;;;8.25;;
17844;SDS011;9047;53.486;10.218;2023-05-07T01:00:14;11.40;;;8.02;;
17844;SDS011;9047;53.486;10.218;2023-05-07T01:02:47;11.57;;;8.70;;
17844;SDS011;9047;53.486;10.218;2023-05-07T01:05:15;10.82;;;9.00;;
17844;SDS011;9047;53.486;10.218;2023-05-07T01:07:45;13.35;;;9.15;;
17844;SDS011;9047;53.486;10.218;2023-05-07T01:10:13;13.10;;;9.80;;
17844;SDS011;9047;53.486;10.218;2023-05-07T01:12:41;12.90;;;9.48;;
17844;SDS011;9047;53.486;10.218;2023-05-07T01:15:09;12.20;;;8.98;;
17844;SDS011;9047;53.486;10.218;2023-05-07T01:17:38;13.25;;;9.05;;
17844;SDS011;9047;53.486;10.218;2023-05-07T01:20:09;12.13;;;8.30;;
17844;SDS011;9047;53.486;10.218;2023-05-07T01:22:39;11.70;;;8.57;;
17844;SDS011;9047;53.486;10.218;2023-05-07T01:25:07;10.77;;;8.18;;
17844;SDS011;9047;53.486;10.218;2023-05-07T01:27:34;11.57;;;8.40;;
17844;SDS011;9047;53.486;10.218;2023-05-07T01:30:02;13.50;;;9.50;;
17844;SDS011;9047;53.486;10.218;2023-05-07T01:32:32;10.63;;;8.25;;
17844;SDS011;9047;53.486;10.218;2023-05-07T01:35:05;10.95;;;8.50;;
17844;SDS011;9047;53.486;10.218;2023-05-07T01:37:36;11.18;;;8.32;;
17844;SDS011;9047;53.486;10.218;2023-05-07T01:40:06;11.48;;;8.52;;
17844;SDS011;9047;53.486;10.218;2023-05-07T01:42:34;12.95;;;8.85;;
17844;SDS011;9047;53.486;10.218;2023-05-07T01:45:02;13.07;;;9.02;;
17844;SDS011;9047;53.486;10.218;2023-05-07T01:47:30;9.88;;;7.93;;
17844;SDS011;9047;53.486;10.218;2023-05-07T01:49:57;11.95;;;8.57;;
17844;SDS011;9047;53.486;10.218;2023-05-07T01:52:25;11.90;;;9.07;;
17844;SDS011;9047;53.486;10.218;2023-05-07T01:54:54;12.15;;;8.68;;
17844;SDS011;9047;53.486;10.218;2023-05-07T01:57:22;12.30;;;8.82;;
17844;SDS011;9047;53.486;10.218;2023-05-07T01:59:52;11.82;;;8.82;;
17844;SDS011;9047;53.486;10.218;2023-05-07T02:02:19;13.18;;;9.15;;
17844;SDS011;9047;53.486;10.218;2023-05-07T02:04:46;11.77;;;8.57;;
17844;SDS011;9047;53.486;10.218;2023-05-07T02:07:14;12.10;;;8.18;;
17844;SDS011;9047;53.486;10.218;2023-05-07T02:09:41;11.52;;;8.30;;
17844;SDS011;9047;53.486;10.218;2023-05-07T02:12:09;11.70;;;8.45;;
17844;SDS011;9047;53.486;10.218;2023-05-07T02:14:38;11.35;;;8.18;;
17844;SDS011;9047;53.486;10.218;2023-05-07T02:17:07;13.35;;;8.60;;
17844;SDS011;9047;53.486;10.218;2023-05-07T02:19:46;12.95;;;8.75;;
17844;SDS011;9047;53.486;10.218;2023-05-07T02:22:14;11.20;;;8.00;;
17844;SDS011;9047;53.486;10.218;2023-05-07T02:24:41;11.55;;;8.10;;
17844;SDS011;9047;53.486;10.218;2023-05-07T02:27:09;12.93;;;7.80;;
17844;SDS011;9047;53.486;10.218;2023-05-07T02:29:41;11.07;;;8.05;;
17844;SDS011;9047;53.486;10.218;2023-05-07T02:32:09;12.05;;;8.13;;
17844;SDS011;9047;53.486;10.218;2023-05-07T02:34:36;10.85;;;8.07;;
17844;SDS011;9047;53.486;10.218;2023-05-07T02:37:06;12.52;;;8.77;;
17844;SDS011;9047;53.486;10.218;2023-05-07T02:39:33;10.90;;;8.18;;
17844;SDS011;9047;53.486;10.218;2023-05-07T02:42:00;14.45;;;9.23;;
17844;SDS011;9047;53.486;10.218;2023-05-07T02:44:29;12.98;;;8.68;;
17844;SDS011;9047;53.486;10.218;2023-05-07T02:46:58;15.40;;;9.05;;
17844;SDS011;9047;53.486;10.218;2023-05-07T02:49:26;14.23;;;10.02;;
17844;SDS011;9047;53.486;10.218;2023-05-07T02:51:52;15.63;;;10.20;;
17844;SDS011;9047;53.486;10.218;2023-05-07T02:54:20;14.15;;;9.60;;
17844;SDS011;9047;53.486;10.218;2023-05-07T02:56:52;15.98;;;9.60;;
17844;SDS011;9047;53.486;10.218;2023-05-07T02:59:19;16.02;;;10.20;;
17844;SDS011;9047;53.486;10.218;2023-05-07T03:01:46;14.13;;;10.10;;
17844;SDS011;9047;53.486;10.218;2023-05-07T03:04:15;15.80;;;10.13;;
17844;SDS011;9047;53.486;10.218;2023-05-07T03:06:42;13.75;;;9.80;;
17844;SDS011;9047;53.486;10.218;2023-05-07T03:09:09;14.40;;;10.00;;
17844;SDS011;9047;53.486;10.218;2023-05-07T03:11:36;13.88;;;10.35;;
17844;SDS011;9047;53.486;10.218;2023-05-07T03:14:04;15.07;;;10.57;;
17844;SDS011;9047;53.486;10.218;2023-05-07T03:16:31;12.90;;;9.82;;
17844;SDS011;9047;53.486;10.218;2023-05-07T03:19:03;12.70;;;9.77;;
17844;SDS011;9047;53.486;10.218;2023-05-07T03:21:32;13.13;;;9.35;;
17844;SDS011;9047;53.486;10.218;2023-05-07T03:23:59;13.38;;;9.35;;
17844;SDS011;9047;53.486;10.218;2023-05-07T03:26:26;13.90;;;9.70;;
17844;SDS011;9047;53.486;10.218;2023-05-07T03:28:54;12.07;;;9.30;;
17844;SDS011;9047;53.486;10.218;2023-05-07T03:31:21;14.73;;;10.10;;
17844;SDS011;9047;53.486;10.218;2023-05-07T03:33:51;12.48;;;9.00;;
17844;SDS011;9047;53.486;10.218;2023-05-07T03:36:19;11.98;;;9.05;;
17844;SDS011;9047;53.486;10.218;2023-05-07T03:38:48;12.32;;;8.93;;
17844;SDS011;9047;53.486;10.218;2023-05-07T03:41:15;12.32;;;8.82;;
17844;SDS011;9047;53.486;10.218;2023-05-07T03:43:43;12.13;;;8.45;;
17844;SDS011;9047;53.486;10.218;2023-05-07T03:46:10;10.95;;;8.32;;
17844;SDS011;9047;53.486;10.218;2023-05-07T03:48:37;11.75;;;8.48;;
17844;SDS011;9047;53.486;10.218;2023-05-07T03:51:04;14.52;;;8.80;;
17844;SDS011;9047;53.486;10.218;2023-05-07T03:53:31;13.35;;;8.20;;
17844;SDS011;9047;53.486;10.218;2023-05-07T03:55:59;12.82;;;8.73;;
17844;SDS011;9047;53.486;10.218;2023-05-07T03:58:26;12.48;;;9.10;;
17844;SDS011;9047;53.486;10.218;2023-05-07T04:00:53;13.40;;;9.32;;
17844;SDS011;9047;53.486;10.218;2023-05-07T04:03:20;12.45;;;8.98;;
17844;SDS011;9047;53.486;10.218;2023-05-07T04:05:47;12.00;;;8.93;;
17844;SDS011;9047;53.486;10.218;2023-05-07T04:08:14;12.50;;;8.65;;
17844;SDS011;9047;53.486;10.218;2023-05-07T04:10:41;13.00;;;8.93;;
17844;SDS011;9047;53.486;10.218;2023-05-07T04:13:12;12.50;;;8.55;;
17844;SDS011;9047;53.486;10.218;2023-05-07T04:15:39;15.13;;;9.00;;
17844;SDS011;9047;53.486;10.218;2023-05-07T04:18:10;13.13;;;8.57;;
17844;SDS011;9047;53.486;10.218;2023-05-07T04:20:37;10.30;;;8.15;;
17844;SDS011;9047;53.486;10.218;2023-05-07T04:23:04;11.88;;;8.48;;
17844;SDS011;9047;53.486;10.218;2023-05-07T04:25:35;10.65;;;7.80;;
17844;SDS011;9047;53.486;10.218;2023-05-07T04:28:02;10.73;;;7.82;;
17844;SDS011;9047;53.486;10.218;2023-05-07T04:30:31;11.10;;;8.00;;
17844;SDS011;9047;53.486;10.218;2023-05-07T04:32:58;11.30;;;8.05;;
17844;SDS011;9047;53.486;10.218;2023-05-07T04:35:25;11.52;;;7.88;;
17844;SDS011;9047;53.486;10.218;2023-05-07T04:37:52;10.35;;;7.93;;
17844;SDS011;9047;53.486;10.218;2023-05-07T04:40:20;10.60;;;7.68;;
17844;SDS011;9047;53.486;10.218;2023-05-07T04:42:47;10.90;;;7.93;;
17844;SDS011;9047;53.486;10.218;2023-05-07T04:45:17;12.15;;;7.93;;
17844;SDS011;9047;53.486;10.218;2023-05-07T04:47:48;10.35;;;7.72;;
17844;SDS011;9047;53.486;10.218;2023-05-07T04:50:15;11.70;;;8.48;;
17844;SDS011;9047;53.486;10.218;2023-05-07T04:52:44;11.05;;;8.10;;
17844;SDS011;9047;53.486;10.218;2023-05-07T04:55:12;12.93;;;8.10;;
17844;SDS011;9047;53.486;10.218;2023-05-07T04:57:39;10.80;;;7.93;;
17844;SDS011;9047;53.486;10.218;2023-05-07T05:00:08;11.63;;;7.45;;
17844;SDS011;9047;53.486;10.218;2023-05-07T05:02:39;10.43;;;7.72;;
17844;SDS011;9047;53.486;10.218;2023-05-07T05:05:08;12.63;;;8.25;;
17844;SDS011;9047;53.486;10.218;2023-05-07T05:07:36;11.77;;;7.72;;
17844;SDS011;9047;53.486;10.218;2023-05-07T05:10:04;12.38;;;8.40;;
17844;SDS011;9047;53.486;10.218;2023-05-07T05:12:33;11.13;;;7.78;;
17844;SDS011;9047;53.486;10.218;2023-05-07T05:15:01;11.30;;;8.00;;
17844;SDS011;9047;53.486;10.218;2023-05-07T05:17:29;14.02;;;8.63;;
17844;SDS011;9047;53.486;10.218;2023-05-07T05:19:59;12.63;;;8.25;;
17844;SDS011;9047;53.486;10.218;2023-05-07T05:22:30;10.45;;;8.00;;
17844;SDS011;9047;53.486;10.218;2023-05-07T05:24:57;11.23;;;7.65;;
17844;SDS011;9047;53.486;10.218;2023-05-07T05:27:25;11.23;;;7.75;;
17844;SDS011;9047;53.486;10.218;2023-05-07T05:29:53;11.60;;;7.90;;
17844;SDS011;9047;53.486;10.218;2023-05-07T05:32:20;11.82;;;7.40;;
17844;SDS011;9047;53.486;10.218;2023-05-07T05:34:50;11.85;;;8.27;;
17844;SDS011;9047;53.486;10.218;2023-05-07T05:37:17;12.43;;;8.40;;
17844;SDS011;9047;53.486;10.218;2023-05-07T05:39:46;12.60;;;8.15;;
17844;SDS011;9047;53.486;10.218;2023-05-07T05:42:14;12.20;;;8.43;;
17844;SDS011;9047;53.486;10.218;2023-05-07T05:44:41;10.77;;;8.10;;
17844;SDS011;9047;53.486;10.218;2023-05-07T05:47:11;11.32;;;8.50;;
17844;SDS011;9047;53.486;10.218;2023-05-07T05:49:40;11.43;;;8.13;;
17844;SDS011;9047;53.486;10.218;2023-05-07T05:52:08;10.57;;;7.93;;
17844;SDS011;9047;53.486;10.218;2023-05-07T05:54:39;10.25;;;7.47;;
17844;SDS011;9047;53.486;10.218;2023-05-07T05:57:09;9.82;;;7.82;;
17844;SDS011;9047;53.486;10.218;2023-05-07T05:59:39;10.85;;;7.82;;
17844;SDS011;9047;53.486;10.218;2023-05-07T06:02:07;11.15;;;7.93;;
17844;SDS011;9047;53.486;10.218;2023-05-07T06:04:34;10.15;;;7.88;;
17844;SDS011;9047;53.486;10.218;2023-05-07T06:07:04;11.77;;;8.07;;
17844;SDS011;9047;53.486;10.218;2023-05-07T06:09:31;12.65;;;8.60;;
17844;SDS011;9047;53.486;10.218;2023-05-07T06:12:01;12.23;;;8.25;;
17844;SDS011;9047;53.486;10.218;2023-05-07T06:14:31;11.88;;;7.80;;
17844;SDS011;9047;53.486;10.218;2023-05-07T06:16:58;11.63;;;8.23;;
17844;SDS011;9047;53.486;10.218;2023-05-07T06:19:25;10.02;;;7.68;;
17844;SDS011;9047;53.486;10.218;2023-05-07T06:21:55;11.25;;;8.15;;
17844;SDS011;9047;53.486;10.218;2023-05-07T06:24:23;10.27;;;7.47;;
17844;SDS011;9047;53.486;10.218;2023-05-07T06:26:55;10.35;;;7.43;;
17844;SDS011;9047;53.486;10.218;2023-05-07T06:29:23;9.60;;;7.18;;
17844;SDS011;9047;53.486;10.218;2023-05-07T06:32:07;11.60;;;7.32;;
17844;SDS011;9047;53.486;10.218;2023-05-07T06:34:35;9.32;;;6.68;;
17844;SDS011;9047;53.486;10.218;2023-05-07T06:37:02;9.95;;;6.60;;
17844;SDS011;9047;53.486;10.218;2023-05-07T06:39:30;9.63;;;6.68;;
17844;SDS011;9047;53.486;10.218;2023-05-07T06:42:00;10.25;;;6.85;;
17844;SDS011;9047;53.486;10.218;2023-05-07T06:44:29;9.45;;;6.70;;
17844;SDS011;9047;53.486;10.218;2023-05-07T06:46:57;11.23;;;7.05;;
17844;SDS011;9047;53.486;10.218;2023-05-07T06:49:26;10.27;;;6.53;;
17844;SDS011;9047;53.486;10.218;2023-05-07T06:51:53;9.57;;;6.50;;
17844;SDS011;9047;53.486;10.218;2023-05-07T06:54:23;8.20;;;6.32;;
17844;SDS011;9047;53.486;10.218;2023-05-07T06:56:50;8.88;;;6.38;;
17844;SDS011;9047;53.486;10.218;2023-05-07T06:59:19;7.80;;;6.20;;
17844;SDS011;9047;53.486;10.218;2023-05-07T07:01:47;7.93;;;5.93;;
17844;SDS011;9047;53.486;10.218;2023-05-07T07:04:19;8.52;;;6.20;;
17844;SDS011;9047;53.486;10.218;2023-05-07T07:06:48;8.90;;;6.18;;
17844;SDS011;9047;53.486;10.218;2023-05-07T07:09:16;8.80;;;6.07;;
17844;SDS011;9047;53.486;10.218;2023-05-07T07:11:43;8.32;;;5.90;;
17844;SDS011;9047;53.486;10.218;2023-05-07T07:14:10;8.63;;;6.10;;
17844;SDS011;9047;53.486;10.218;2023-05-07T07:16:38;7.35;;;5.88;;
17844;SDS011;9047;53.486;10.218;2023-05-07T07:19:07;6.80;;;5.57;;
17844;SDS011;9047;53.486;10.218;2023-05-07T07:21:34;8.00;;;6.03;;
17844;SDS011;9047;53.486;10.218;2023-05-07T07:24:04;6.90;;;5.30;;
17844;SDS011;9047;53.486;10.218;2023-05-07T07:26:31;8.10;;;6.20;;
17844;SDS011;9047;53.486;10.218;2023-05-07T07:29:01;6.78;;;5.70;;
17844;SDS011;9047;53.486;10.218;2023-05-07T07:31:28;8.35;;;6.07;;
17844;SDS011;9047;53.486;10.218;2023-05-07T07:33:55;8.27;;;6.43;;
17844;SDS011;9047;53.486;10.218;2023-05-07T07:36:27;9.23;;;6.10;;
17844;SDS011;9047;53.486;10.218;2023-05-07T07:38:54;7.40;;;5.57;;
17844;SDS011;9047;53.486;10.218;2023-05-07T07:41:25;7.82;;;5.78;;
17844;SDS011;9047;53.486;10.218;2023-05-07T07:43:53;7.53;;;5.55;;
17844;SDS011;9047;53.486;10.218;2023-05-07T07:46:24;7.55;;;5.65;;
17844;SDS011;9047;53.486;10.218;2023-05-07T07:48:51;7.47;;;5.50;;
17844;SDS011;9047;53.486;10.218;2023-05-07T07:51:29;7.13;;;5.20;;
17844;SDS011;9047;53.486;10.218;2023-05-07T07:53:57;7.10;;;5.60;;
17844;SDS011;9047;53.486;10.218;2023-05-07T07:56:28;9.77;;;5.65;;
17844;SDS011;9047;53.486;10.218;2023-05-07T07:58:58;7.10;;;5.53;;
17844;SDS011;9047;53.486;10.218;2023-05-07T08:01:31;6.43;;;5.38;;
17844;SDS011;9047;53.486;10.218;2023-05-07T08:03:59;6.70;;;5.20;;
17844;SDS011;9047;53.486;10.218;2023-05-07T08:06:30;9.80;;;5.70;;
17844;SDS011;9047;53.486;10.218;2023-05-07T08:08:57;8.10;;;5.90;;
17844;SDS011;9047;53.486;10.218;2023-05-07T08:11:30;6.68;;;5.35;;
17844;SDS011;9047;53.486;10.218;2023-05-07T08:13:57;8.05;;;5.50;;
17844;SDS011;9047;53.486;10.218;2023-05-07T08:16:24;7.72;;;5.85;;
17844;SDS011;9047;53.486;10.218;2023-05-07T08:18:51;7.35;;;6.03;;
17844;SDS011;9047;53.486;10.218;2023-05-07T08:21:26;8.60;;;5.78;;
17844;SDS011;9047;53.486;10.218;2023-05-07T08:23:53;7.57;;;6.03;;
17844;SDS011;9047;53.486;10.218;2023-05-07T08:26:20;7.93;;;6.20;;
17844;SDS011;9047;53.486;10.218;2023-05-07T08:28:50;7.00;;;5.57;;
17844;SDS011;9047;53.486;10.218;2023-05-07T08:31:21;6.65;;;5.57;;
17844;SDS011;9047;53.486;10.218;2023-05-07T08:33:48;7.97;;;6.18;;
17844;SDS011;9047;53.486;10.218;2023-05-07T08:36:16;8.32;;;6.00;;
17844;SDS011;9047;53.486;10.218;2023-05-07T08:38:44;7.88;;;5.43;;
17844;SDS011;9047;53.486;10.218;2023-05-07T08:41:11;6.80;;;5.82;;
17844;SDS011;9047;53.486;10.218;2023-05-07T08:43:38;6.75;;;5.18;;
17844;SDS011;9047;53.486;10.218;2023-05-07T08:46:09;7.38;;;5.55;;
17844;SDS011;9047;53.486;10.218;2023-05-07T08:48:36;8.25;;;5.18;;
17844;SDS011;9047;53.486;10.218;2023-05-07T08:51:03;7.88;;;5.65;;
17844;SDS011;9047;53.486;10.218;2023-05-07T08:53:31;7.13;;;5.10;;
17844;SDS011;9047;53.486;10.218;2023-05-07T08:55:59;7.60;;;5.30;;
17844;SDS011;9047;53.486;10.218;2023-05-07T08:58:26;8.43;;;5.72;;
17844;SDS011;9047;53.486;10.218;2023-05-07T09:01:01;8.75;;;5.60;;
17844;SDS011;9047;53.486;10.218;2023-05-07T09:03:43;7.07;;;5.55;;
17844;SDS011;9047;53.486;10.218;2023-05-07T09:06:28;9.00;;;5.60;;
17844;SDS011;9047;53.486;10.218;2023-05-07T09:08:55;6.95;;;5.50;;
17844;SDS011;9047;53.486;10.218;2023-05-07T09:11:23;6.85;;;5.15;;
17844;SDS011;9047;53.486;10.218;2023-05-07T09:13:53;6.93;;;5.50;;
17844;SDS011;9047;53.486;10.218;2023-05-07T09:16:20;6.88;;;4.97;;
17844;SDS011;9047;53.486;10.218;2023-05-07T09:18:50;6.80;;;5.20;;
17844;SDS011;9047;53.486;10.218;2023-05-07T09:21:21;6.53;;;5.03;;
17844;SDS011;9047;53.486;10.218;2023-05-07T09:23:50;6.25;;;5.18;;
17844;SDS011;9047;53.486;10.218;2023-05-07T09:26:18;7.95;;;4.70;;
17844;SDS011;9047;53.486;10.218;2023-05-07T09:28:47;6.60;;;5.10;;
17844;SDS011;9047;53.486;10.218;2023-05-07T09:31:14;7.75;;;5.20;;
17844;SDS011;9047;53.486;10.218;2023-05-07T09:33:41;6.03;;;4.70;;
17844;SDS011;9047;53.486;10.218;2023-05-07T09:36:10;7.35;;;5.20;;
17844;SDS011;9047;53.486;10.218;2023-05-07T09:38:37;8.40;;;5.43;;
17844;SDS011;9047;53.486;10.218;2023-05-07T09:41:05;6.55;;;4.75;;
17844;SDS011;9047;53.486;10.218;2023-05-07T09:43:34;8.85;;;5.25;;
17844;SDS011;9047;53.486;10.218;2023-05-07T09:46:09;6.18;;;5.03;;
17844;SDS011;9047;53.486;10.218;2023-05-07T09:48:39;6.57;;;5.03;;
17844;SDS011;9047;53.486;10.218;2023-05-07T09:51:14;5.68;;;4.90;;
17844;SDS011;9047;53.486;10.218;2023-05-07T09:53:52;7.85;;;5.20;;
17844;SDS011;9047;53.486;10.218;2023-05-07T09:56:22;6.85;;;4.80;;
17844;SDS011;9047;53.486;10.218;2023-05-07T09:58:50;5.97;;;4.72;;
17844;SDS011;9047;53.486;10.218;2023-05-07T10:01:20;7.60;;;4.90;;
17844;SDS011;9047;53.486;10.218;2023-05-07T10:03:49;5.80;;;4.93;;
17844;SDS011;9047;53.486;10.218;2023-05-07T10:06:19;8.68;;;4.90;;
17844;SDS011;9047;53.486;10.218;2023-05-07T10:08:47;7.07;;;5.10;;
17844;SDS011;9047;53.486;10.218;2023-05-07T10:11:17;5.60;;;4.72;;
17844;SDS011;9047;53.486;10.218;2023-05-07T10:13:46;6.40;;;5.15;;
17844;SDS011;9047;53.486;10.218;2023-05-07T10:16:15;5.72;;;4.68;;
17844;SDS011;9047;53.486;10.218;2023-05-07T10:18:43;5.60;;;4.40;;
17844;SDS011;9047;53.486;10.218;2023-05-07T10:21:11;10.13;;;4.65;;
17844;SDS011;9047;53.486;10.218;2023-05-07T10:23:47;5.85;;;4.80;;
17844;SDS011;9047;53.486;10.218;2023-05-07T10:26:17;5.32;;;4.20;;
17844;SDS011;9047;53.486;10.218;2023-05-07T10:28:46;5.35;;;4.43;;
17844;SDS011;9047;53.486;10.218;2023-05-07T10:31:24;5.70;;;3.80;;
17844;SDS011;9047;53.486;10.218;2023-05-07T10:34:01;4.82;;;4.07;;
17844;SDS011;9047;53.486;10.218;2023-05-07T10:36:36;5.20;;;4.03;;
17844;SDS011;9047;53.486;10.218;2023-05-07T10:39:06;4.55;;;4.07;;
17844;SDS011;9047;53.486;10.218;2023-05-07T10:41:37;5.13;;;3.95;;
17844;SDS011;9047;53.486;10.218;2023-05-07T10:44:11;5.75;;;4.07;;
17844;SDS011;9047;53.486;10.218;2023-05-07T10:46:39;6.53;;;4.00;;
17844;SDS011;9047;53.486;10.218;2023-05-07T10:49:06;5.40;;;4.47;;
17844;SDS011;9047;53.486;10.218;2023-05-07T10:51:34;5.88;;;4.18;;
17844;SDS011;9047;53.486;10.218;2023-05-07T10:54:23;5.10;;;4.15;;
17844;SDS011;9047;53.486;10.218;2023-05-07T10:56:50;5.63;;;3.85;;
17844;SDS011;9047;53.486;10.218;2023-05-07T10:59:30;5.32;;;3.90;;
17844;SDS011;9047;53.486;10.218;2023-05-07T11:01:59;4.57;;;3.85;;
17844;SDS011;9047;53.486;10.218;2023-05-07T11:04:28;5.10;;;3.95;;
17844;SDS011;9047;53.486;10.218;2023-05-07T11:10:08;4.65;;;4.05;;
17844;SDS011;9047;53.486;10.218;2023-05-07T11:15:41;7.80;;;5.43;;
17844;SDS011;9047;53.486;10.218;2023-05-07T11:18:10;6.25;;;4.82;;
17844;SDS011;9047;53.486;10.218;2023-05-07T11:20:45;5.90;;;4.70;;
17844;SDS011;9047;53.486;10.218;2023-05-07T11:26:24;5.32;;;3.80;;
17844;SDS011;9047;53.486;10.218;2023-05-07T11:28:52;5.72;;;3.65;;
17844;SDS011;9047;53.486;10.218;2023-05-07T11:31:20;5.90;;;3.92;;
17844;SDS011;9047;53.486;10.218;2023-05-07T11:33:48;4.57;;;3.85;;
17844;SDS011;9047;53.486;10.218;2023-05-07T11:36:16;5.45;;;3.90;;
17844;SDS011;9047;53.486;10.218;2023-05-07T11:38:45;5.25;;;3.88;;
17844;SDS011;9047;53.486;10.218;2023-05-07T11:41:12;5.30;;;3.78;;
17844;SDS011;9047;53.486;10.218;2023-05-07T11:43:54;4.20;;;3.30;;
17844;SDS011;9047;53.486;10.218;2023-05-07T11:46:23;3.78;;;2.90;;
17844;SDS011;9047;53.486;10.218;2023-05-07T11:48:51;4.03;;;2.67;;
17844;SDS011;9047;53.486;10.218;2023-05-07T11:51:18;4.28;;;2.67;;
17844;SDS011;9047;53.486;10.218;2023-05-07T11:53:46;3.05;;;2.72;;
17844;SDS011;9047;53.486;10.218;2023-05-07T11:56:13;2.90;;;2.60;;
17844;SDS011;9047;53.486;10.218;2023-05-07T11:58:42;4.43;;;2.78;;
17844;SDS011;9047;53.486;10.218;2023-05-07T12:01:12;3.67;;;2.58;;
17844;SDS011;9047;53.486;10.218;2023-05-07T12:03:40;3.60;;;2.55;;
17844;SDS011;9047;53.486;10.218;2023-05-07T12:06:09;3.30;;;2.70;;
17844;SDS011;9047;53.486;10.218;2023-05-07T12:08:37;2.95;;;2.50;;
17844;SDS011;9047;53.486;10.218;2023-05-07T12:11:09;3.85;;;2.42;;
17844;SDS011;9047;53.486;10.218;2023-05-07T12:13:38;2.88;;;2.50;;
17844;SDS011;9047;53.486;10.218;2023-05-07T12:16:05;3.03;;;2.70;;
17844;SDS011;9047;53.486;10.218;2023-05-07T12:18:35;3.28;;;2.50;;
17844;SDS011;9047;53.486;10.218;2023-05-07T12:21:04;3.67;;;2.40;;
17844;SDS011;9047;53.486;10.218;2023-05-07T12:23:31;2.90;;;2.30;;
17844;SDS011;9047;53.486;10.218;2023-05-07T12:25:59;4.03;;;2.08;;
17844;SDS011;9047;53.486;10.218;2023-05-07T12:28:27;2.72;;;2.30;;
17844;SDS011;9047;53.486;10.218;2023-05-07T12:30:55;2.67;;;2.30;;
17844;SDS011;9047;53.486;10.218;2023-05-07T12:33:24;2.38;;;2.17;;
17844;SDS011;9047;53.486;10.218;2023-05-07T12:35:54;3.40;;;2.50;;
17844;SDS011;9047;53.486;10.218;2023-05-07T12:38:22;2.65;;;2.17;;
17844;SDS011;9047;53.486;10.218;2023-05-07T12:40:50;2.38;;;2.17;;
17844;SDS011;9047;53.486;10.218;2023-05-07T12:43:20;3.47;;;2.60;;
17844;SDS011;9047;53.486;10.218;2023-05-07T12:45:48;5.30;;;2.55;;
17844;SDS011;9047;53.486;10.218;2023-05-07T12:48:17;2.92;;;2.50;;
17844;SDS011;9047;53.486;10.218;2023-05-07T12:50:45;4.45;;;2.85;;
17844;SDS011;9047;53.486;10.218;2023-05-07T12:53:19;2.97;;;2.67;;
17844;SDS011;9047;53.486;10.218;2023-05-07T12:55:48;4.85;;;2.53;;
17844;SDS011;9047;53.486;10.218;2023-05-07T12:58:18;2.40;;;2.20;;
17844;SDS011;9047;53.486;10.218;2023-05-07T13:00:49;2.65;;;2.38;;
17844;SDS011;9047;53.486;10.218;2023-05-07T13:03:22;2.50;;;2.30;;
17844;SDS011;9047;53.486;10.218;2023-05-07T13:05:52;2.47;;;2.28;;
17844;SDS011;9047;53.486;10.218;2023-05-07T13:08:25;4.22;;;2.30;;
17844;SDS011;9047;53.486;10.218;2023-05-07T13:10:54;3.15;;;2.22;;
17844;SDS011;9047;53.486;10.218;2023-05-07T13:13:21;3.13;;;1.98;;
17844;SDS011;9047;53.486;10.218;2023-05-07T13:15:48;2.45;;;2.20;;
17844;SDS011;9047;53.486;10.218;2023-05-07T13:18:16;3.97;;;2.22;;
17844;SDS011;9047;53.486;10.218;2023-05-07T13:20:44;2.90;;;2.15;;
17844;SDS011;9047;53.486;10.218;2023-05-07T13:23:12;2.40;;;2.00;;
17844;SDS011;9047;53.486;10.218;2023-05-07T13:25:48;3.22;;;2.13;;
17844;SDS011;9047;53.486;10.218;2023-05-07T13:28:19;2.92;;;2.30;;
17844;SDS011;9047;53.486;10.218;2023-05-07T13:30:47;2.35;;;2.15;;
17844;SDS011;9047;53.486;10.218;2023-05-07T13:33:14;2.30;;;2.08;;
17844;SDS011;9047;53.486;10.218;2023-05-07T13:35:42;2.20;;;1.90;;
17844;SDS011;9047;53.486;10.218;2023-05-07T13:38:10;2.83;;;2.35;;
17844;SDS011;9047;53.486;10.218;2023-05-07T13:40:39;3.05;;;2.20;;
17844;SDS011;9047;53.486;10.218;2023-05-07T13:43:08;2.63;;;2.08;;
17844;SDS011;9047;53.486;10.218;2023-05-07T13:45:36;4.57;;;2.30;;
17844;SDS011;9047;53.486;10.218;2023-05-07T13:48:03;3.35;;;2.00;;
17844;SDS011;9047;53.486;10.218;2023-05-07T13:50:31;2.88;;;2.00;;
17844;SDS011;9047;53.486;10.218;2023-05-07T13:52:58;2.70;;;1.92;;
17844;SDS011;9047;53.486;10.218;2023-05-07T13:55:28;2.35;;;1.85;;
17844;SDS011;9047;53.486;10.218;2023-05-07T13:57:55;2.25;;;2.00;;
17844;SDS011;9047;53.486;10.218;2023-05-07T14:00:25;2.25;;;1.95;;
17844;SDS011;9047;53.486;10.218;2023-05-07T14:02:53;2.08;;;1.85;;
17844;SDS011;9047;53.486;10.218;2023-05-07T14:05:22;2.38;;;1.98;;
17844;SDS011;9047;53.486;10.218;2023-05-07T14:07:50;2.55;;;1.90;;
17844;SDS011;9047;53.486;10.218;2023-05-07T14:10:29;2.10;;;1.90;;
17844;SDS011;9047;53.486;10.218;2023-05-07T14:12:59;2.78;;;2.25;;
17844;SDS011;9047;53.486;10.218;2023-05-07T14:15:28;2.95;;;1.80;;
17844;SDS011;9047;53.486;10.218;2023-05-07T14:17:57;2.42;;;1.80;;
17844;SDS011;9047;53.486;10.218;2023-05-07T14:20:25;2.25;;;1.90;;
17844;SDS011;9047;53.486;10.218;2023-05-07T14:22:53;3.80;;;1.63;;
17844;SDS011;9047;53.486;10.218;2023-05-07T14:25:22;2.22;;;1.70;;
17844;SDS011;9047;53.486;10.218;2023-05-07T14:27:49;2.40;;;1.80;;
17844;SDS011;9047;53.486;10.218;2023-05-07T14:30:16;4.63;;;1.83;;
17844;SDS011;9047;53.486;10.218;2023-05-07T14:32:45;2.95;;;1.85;;
17844;SDS011;9047;53.486;10.218;2023-05-07T14:35:13;2.75;;;1.63;;
17844;SDS011;9047;53.486;10.218;2023-05-07T14:37:41;2.85;;;1.80;;
17844;SDS011;9047;53.486;10.218;2023-05-07T14:40:12;3.20;;;2.00;;
17844;SDS011;9047;53.486;10.218;2023-05-07T14:42:39;2.95;;;1.90;;
17844;SDS011;9047;53.486;10.218;2023-05-07T14:45:08;2.85;;;1.60;;
17844;SDS011;9047;53.486;10.218;2023-05-07T14:47:37;2.28;;;1.70;;
17844;SDS011;9047;53.486;10.218;2023-05-07T14:50:09;3.00;;;2.20;;
17844;SDS011;9047;53.486;10.218;2023-05-07T14:52:37;3.55;;;1.90;;
17844;SDS011;9047;53.486;10.218;2023-05-07T14:55:06;2.05;;;1.85;;
17844;SDS011;9047;53.486;10.218;2023-05-07T14:57:35;2.22;;;2.03;;
17844;SDS011;9047;53.486;10.218;2023-05-07T15:00:03;2.58;;;2.00;;